CBE8 weather

Moose Lake (Lodge) Seaplane Base
British Columbia, Canada

Public forecast

Using degrees Celsius for public forecast. Weather courtesy of forecast.io.

METAR (pilot weather report)

Closest report is Bella Coola Airport, 60.0 nm (111.0 km) SW. Retrieved 2019/08/21 22:00 UTC (23 seconds ago):

CYBD 212200Z 25017G29KT 15SM BKN085 19/08 A2992 RMK AC6 SLP135 DENSITY ALT 600FT

TAF (pilot weather forecast)

Closest forecast is Quesnel Airport, 104.4 nm (193.3 km) E. Retrieved 2019/08/21 19:00 UTC (3 hours ago):

TAF CYQZ 211840Z 2119/2206 17015G25KT P6SM BKN100 TEMPO 2119/2121 P6SM -SHRA BKN050 OVC100 FM212100 17015G25KT P6SM BKN060 TEMPO 2121/2201 P6SM -SHRA PROB30 2121/2201 VRB20G30KT 6SM TSRA BKN060CB FM220100 01010KT P6SM FEW060 RMK FCST BASED ON AUTO OBS. NXT FCST BY 220100Z